EHWOEBAW

Guest
Details From EHWO - Woensdrecht
To EBAW - Antwerp Deurne
Flight Number -
Tags decoded
Created
Modified
Stats Distance 46 nm / 85 km
Max Altitude 0 ft / 0 m
Waypoints 8
Social Downloads 3
Likes 0
Share VATSIM

Download

Looking for another format? Having issues loading an existing format? Contact us
Advertisement - Login to hide

Notes

Requested: EHWO RUPIN BBL25 SONDI HOTEL ANT66 ANNT44 R1828 EBAW Unmatched points: ANNT44

Route

EHWO RUPIN BBL25 SONDI HOTEL ANT66 R1828 EBAW

ID Type Via Altitude Latitude Longitude Leg Dist Tot Dist Heading (true) Name
O EHWO APT - 0 ft / 0 m 51.44900˚ 4.34208˚ - 0 nm - Woensdrecht
RUPIN FIX - 0 ft / 0 m 51.46050˚ 4.54052˚ 7 nm 7 nm 85° / 85° -
BBL25 FIX - 0 ft / 0 m 51.34952˚ 4.86729˚ 13 nm 21 nm 118° / 119° -
SONDI FIX - 0 ft / 0 m 51.19042˚ 4.83833˚ 9 nm 31 nm 187° / 186° -
HOTEL FIX - 0 ft / 0 m 51.17333˚ 4.80333˚ 1 nm 32 nm 232° / 232° -
ANT66 FIX - 0 ft / 0 m 51.15403˚ 4.62038˚ 6 nm 39 nm 261° / 260° -
R1828 FIX - 0 ft / 0 m 51.18779˚ 4.47305˚ 5 nm 45 nm 290° / 290° -
O EBAW APT - 0 ft / 0 m 51.19065˚ 4.46378˚ 0 nm 45 nm 296° / 296° Antwerp Deurne

Altitude Profile

Advertisement - Login to hide

EHWO

Details ICAO EHWO (WOE)
Name Woensdrecht
Region Netherlands
Timezone Europe/Amsterdam (UTC+1.0)
Stats Elevation 63 ft / 19 m (AMSL)
Location 51.449000° 4.342084°
Runways 1
Magnetic Variation 1.044° E

METAR

EHWO 111725Z AUTO 03015KT 330V090 1100 SN SCT003 BKN004 BKN005 FEW015CB M00/M00 Q0978 AMB

Decode

TAF

Not found

Departure Runways

ID Width Length Bearing (true) Bearing (mag) Surface Threshold Offset Overrun Length
07 148 ft / 45 m 7,974 ft / 2,430 m 69.45° 68.41° Asphalt 0 ft / 0 m 82 ft / 25 m
25 148 ft / 45 m 7,974 ft / 2,430 m 249.47° 248.43° Asphalt 0 ft / 0 m 82 ft / 25 m

EBAW

Details ICAO EBAW (ANR)
Name Antwerp Deurne
Region Belgium
Timezone Europe/Brussels (UTC+1.0)
Stats Elevation 39 ft / 12 m (AMSL)
Location 51.190654° 4.463776°
Runways 2
Magnetic Variation 1.097° E

METAR

EBAW 111720Z 01011KT 340V040 1100 R11/P2000N R29/P2000N SN SCT003 BKN004 00/M01 Q0978 R88/825088 TEMPO 0800 SN

Decode

TAF

Not found

Destination Runways

ID Width Length Bearing (true) Bearing (mag) Surface Threshold Offset Overrun Length
11 148 ft / 45 m 4,931 ft / 1,503 m 109.83° 108.73° Asphalt 472 ft / 144 m 0 ft / 0 m
11L 164 ft / 50 m 3,317 ft / 1,011 m 109.83° 108.73° Grass 0 ft / 0 m 0 ft / 0 m
29 148 ft / 45 m 4,931 ft / 1,503 m 289.85° 288.75° Asphalt 400 ft / 122 m 0 ft / 0 m
29R 164 ft / 50 m 3,317 ft / 1,011 m 289.85° 288.75° Grass 0 ft / 0 m 0 ft / 0 m

Approach Navaids

Runway Type Ident Frequency Range Bearing (true) Bearing (mag) Slope Elevation
29 Localiser IAD 111.75 MHz 18 nm / 33 km 289.64° 288.54° - 39 ft / 12 m (AMSL)
29 Glidescope IAD 111.75 MHz 10 nm / 19 km 289.84° 288.74° 3.00° 39 ft / 12 m (AMSL)
29 DME IAD 111.75 MHz 18 nm / 33 km - - - 39 ft / 12 m (AMSL)